Atwood, Colorado
Current Conditions -  °F | °C
As of 9:10 AM on Monday 24 Nov 2014 (Local Time) from KSTK Reporting Station
Broken Clouds Broken Clouds  
Wind Chill:   Ceiling: 8000
Heat Index:   Visibility: 10mi
Dew Point: -6°   Wind: 16mph
Humidity: 45%   Direction: 320°NW
Pressure: 29.9"   Gusts: 22mph
Location:  40.55°N, 103.27°W
Report Text: KSTK 241610Z AUTO 32014G19KT 10SM BKN080 BKN120 05/M06 A2990 RMK AO2
Loading
Personal Weather Stations






























Interactive Weather Map New forecast layout! Learn more

10-Day Weather Forecast

Advertisements
Track Severe Weather on mobile